Time;durP1;ratioP1;P1;durP2;ratioP2;P2;SDS_P1;SDS_P2;PMS_P1;PMS_P2;Temp;Humidity;BMP_temperature;BMP_pressure;BME280_temperature;BME280_humidity;BME280_pressure;Samples;Min_cycle;Max_cycle;Signal;HPM_P1;HPM_P2
2020/12/10 10:11:15;;;;;;;18.38;14.10;;;17.80;54.10;;;;;;2237059;63;20305;-85
2020/12/10 10:14:05;;;;;;;21.77;15.20;;;18.50;48.70;;;;;;2231583;64;20162;-84
2020/12/10 10:16:32;;;;;;;22.67;15.65;;;18.30;49.20;;;;;;2236663;64;20328;-85
2020/12/10 10:18:59;;;;;;;20.55;15.40;;;18.20;49.40;;;;;;2236511;64;20258;-87
2020/12/10 10:21:27;;;;;;;20.25;15.38;;;18.10;49.60;;;;;;2236488;64;20188;-85
2020/12/10 10:23:56;;;;;;;20.48;16.20;;;18.00;49.80;;;;;;2236611;64;20170;-85
2020/12/10 10:26:23;;;;;;;22.40;15.95;;;17.90;49.80;;;;;;2236669;64;20270;-84
2020/12/10 10:29:10;;;;;;;28.05;17.30;;;17.80;50.00;;;;;;2231216;64;20174;-84
2020/12/10 10:31:36;;;;;;;26.13;17.23;;;17.70;50.20;;;;;;2236432;64;20536;-84
2020/12/10 10:34:02;;;;;;;23.80;17.63;;;17.60;50.30;;;;;;2236507;64;20297;-84
2020/12/10 10:36:28;;;;;;;25.42;17.88;;;17.50;50.40;;;;;;2237371;64;20646;-84
2020/12/10 10:38:54;;;;;;;24.25;17.38;;;17.40;50.40;;;;;;2236585;64;20169;-85
2020/12/10 10:41:20;;;;;;;26.63;18.40;;;17.40;50.50;;;;;;2236416;64;20197;-85
2020/12/10 10:43:46;;;;;;;24.25;17.48;;;17.30;50.60;;;;;;2243689;63;20218;-85
2020/12/10 10:46:32;;;;;;;25.33;18.55;;;17.30;50.70;;;;;;2238180;63;20161;-85
2020/12/10 10:53:55;;;;;;;28.80;19.30;;;17.10;50.50;;;;;;2204692;64;20246;-89
2020/12/10 10:57:00;;;;;;;25.25;17.65;;;17.00;50.60;;;;;;2209908;64;20330;-87
2020/12/10 11:00:22;;;;;;;28.35;19.58;;;16.90;50.80;;;;;;2210193;64;20171;-85
2020/12/10 11:03:00;;;;;;;31.27;18.60;;;16.90;51.10;;;;;;2202337;65;20761;-87
2020/12/10 11:12:53;;;;;;;25.40;18.50;;;16.80;51.40;;;;;;2201352;65;20667;-86
2020/12/10 11:22:15;;;;;;;30.02;19.02;;;16.70;51.70;;;;;;2374498;53;20160;-88
2020/12/10 11:24:51;;;;;;;32.83;20.35;;;16.70;51.60;;;;;;2217077;64;20540;-84
2020/12/10 11:27:30;;;;;;;27.70;19.52;;;16.70;51.70;;;;;;2216824;64;20597;-85
2020/12/10 11:30:23;;;;;;;34.22;20.20;;;16.80;51.70;;;;;;2212356;64;20627;-85
2020/12/10 11:32:51;;;;;;;36.47;21.50;;;16.70;51.70;;;;;;2216409;64;20327;-85
2020/12/10 11:35:40;;;;;;;44.22;27.58;;;16.70;51.50;;;;;;2212086;64;20159;-85
2020/12/10 11:39:02;;;;;;;40.10;24.95;;;16.60;49.50;;;;;;2217417;64;20667;-88
2020/12/10 11:41:33;;;;;;;40.00;23.85;;;16.50;50.00;;;;;;2192602;65;20499;-86
2020/12/10 11:43:59;;;;;;;32.10;22.20;;;16.50;50.60;;;;;;2192398;65;20206;-84
2020/12/10 11:46:53;;;;;;;34.22;21.95;;;16.50;50.80;;;;;;2197502;65;20781;-86
2020/12/10 12:05:58;;;;;;;38.00;21.58;;;17.50;48.40;;;;;;2433461;54;20634;-85
2020/12/10 12:08:28;;;;;;;32.60;20.73;;;17.60;49.00;;;;;;2207492;64;20160;-82
2020/12/10 12:11:13;;;;;;;32.90;20.48;;;17.50;49.10;;;;;;2199910;65;20218;-84
2020/12/10 12:13:59;;;;;;;30.00;19.90;;;17.40;49.30;;;;;;2193211;65;20345;-85
2020/12/10 12:16:46;;;;;;;31.45;20.70;;;17.30;49.60;;;;;;2195936;65;20261;-84
2020/12/10 12:19:15;;;;;;;30.88;19.05;;;17.20;49.80;;;;;;2206640;64;20680;-86
2020/12/10 12:22:04;;;;;;;34.17;20.77;;;17.20;50.00;;;;;;2193553;65;20199;-84
2020/12/10 12:24:30;;;;;;;35.75;21.40;;;17.00;49.40;;;;;;2205954;64;20285;-83
2020/12/10 12:26:55;;;;;;;37.63;21.10;;;16.90;49.30;;;;;;2206406;65;20274;-83
2020/12/10 12:29:22;;;;;;;35.65;21.63;;;16.80;48.90;;;;;;2206431;64;20240;-84
2020/12/10 12:31:52;;;;;;;33.10;21.00;;;16.70;48.70;;;;;;2206598;65;20453;-82
2020/12/10 12:34:18;;;;;;;31.60;19.80;;;16.70;49.30;;;;;;2206591;65;20656;-83
2020/12/10 12:36:44;;;;;;;32.25;19.08;;;16.70;49.60;;;;;;2206479;64;20527;-83
2020/12/10 12:39:13;;;;;;;29.98;18.70;;;16.70;49.80;;;;;;2206651;65;20535;-82
2020/12/10 12:42:03;;;;;;;31.50;19.50;;;16.70;49.80;;;;;;2210716;64;20227;-82
2020/12/10 12:44:29;;;;;;;30.73;17.60;;;16.80;50.10;;;;;;2215266;64;20152;-83
2020/12/10 12:46:55;;;;;;;28.40;18.35;;;16.80;50.80;;;;;;2215262;64;20705;-83
2020/12/10 12:49:21;;;;;;;30.55;18.33;;;16.80;50.50;;;;;;2213650;64;20191;-83
2020/12/10 13:33:59;;;;;;;24.17;16.15;;;17.40;48.20;;;;;;5133840;27;20177;-74
2020/12/10 13:36:26;;;;;;;27.08;16.35;;;17.40;49.10;;;;;;5113114;28;20040;-74
2020/12/10 13:38:52;;;;;;;24.52;15.43;;;17.30;49.30;;;;;;5113162;28;20040;-77
2020/12/10 13:41:19;;;;;;;25.90;16.10;;;17.30;49.60;;;;;;5113244;28;20118;-78
2020/12/10 13:44:05;;;;;;;28.73;16.30;;;17.20;49.90;;;;;;5093181;28;20522;-77
2020/12/10 13:46:30;;;;;;;25.90;16.77;;;17.10;50.00;;;;;;5092937;28;20051;-77
2020/12/10 13:49:16;;;;;;;25.70;15.48;;;17.10;49.90;;;;;;5077216;28;20044;-73
2020/12/10 13:51:42;;;;;;;22.50;15.18;;;17.00;49.80;;;;;;5092029;28;20139;-75
2020/12/10 13:54:08;;;;;;;25.02;15.02;;;17.10;49.80;;;;;;5092104;28;20044;-75
2020/12/10 13:56:58;;;;;;;24.33;15.80;;;17.10;49.80;;;;;;5077081;28;20048;-72
2020/12/10 13:59:44;;;;;;;22.92;15.80;;;17.10;49.80;;;;;;5077324;28;20059;-77
2020/12/10 14:02:10;;;;;;;23.98;14.70;;;17.10;49.80;;;;;;5092211;28;20426;-76
2020/12/10 14:04:36;;;;;;;21.10;14.55;;;17.10;49.70;;;;;;5092452;28;20036;-75
2020/12/10 14:07:22;;;;;;;24.00;13.75;;;17.20;49.80;;;;;;5075618;28;20354;-77
2020/12/10 14:09:55;;;;;;;24.63;15.45;;;17.20;50.60;;;;;;5073627;28;20199;-72
2020/12/10 14:12:21;;;;;;;20.17;13.02;;;17.20;50.20;;;;;;5070493;28;20048;-76
2020/12/10 14:14:46;;;;;;;23.92;14.20;;;17.20;50.20;;;;;;5092232;28;20055;-75
2020/12/10 14:17:16;;;;;;;24.48;14.75;;;17.30;50.10;;;;;;5091890;28;20064;-75
2020/12/10 14:19:42;;;;;;;21.45;13.93;;;17.30;50.10;;;;;;5091403;28;20435;-75
2020/12/10 14:22:08;;;;;;;21.00;13.30;;;17.40;50.20;;;;;;5092000;28;20051;-76
2020/12/10 14:24:54;;;;;;;21.23;13.23;;;17.40;50.00;;;;;;5076654;28;20043;-75
2020/12/10 14:27:20;;;;;;;20.38;14.00;;;17.50;50.10;;;;;;5091638;28;20048;-76
2020/12/10 14:29:46;;;;;;;21.98;13.93;;;17.50;50.60;;;;;;5091524;28;20431;-76
2020/12/10 14:32:11;;;;;;;20.13;13.18;;;17.50;49.90;;;;;;5091048;28;20048;-75
2020/12/10 14:34:37;;;;;;;19.63;12.30;;;17.60;49.80;;;;;;5091919;28;20100;-76
2020/12/10 14:37:03;;;;;;;20.00;11.77;;;17.60;49.70;;;;;;5091512;28;20037;-76
2020/12/10 14:39:29;;;;;;;20.88;13.68;;;17.60;49.70;;;;;;5091486;28;20109;-73
2020/12/10 14:42:15;;;;;;;20.70;12.75;;;17.60;49.60;;;;;;5076339;28;20109;-73
2020/12/10 14:45:01;;;;;;;22.83;13.80;;;17.60;49.70;;;;;;5064084;28;20057;-76
2020/12/10 14:47:27;;;;;;;20.65;13.25;;;17.70;49.60;;;;;;5077814;28;20427;-76
2020/12/10 14:50:13;;;;;;;20.05;12.77;;;17.70;49.60;;;;;;5063082;28;20044;-76
2020/12/10 14:52:58;;;;;;;21.40;13.23;;;17.70;49.60;;;;;;5063040;28;20435;-76
2020/12/10 14:55:27;;;;;;;21.38;13.60;;;17.70;49.50;;;;;;5077833;28;20049;-76
2020/12/10 14:58:13;;;;;;;19.83;12.50;;;17.80;49.40;;;;;;5063148;28;20127;-75
2020/12/10 15:00:42;;;;;;;20.33;13.25;;;17.70;49.40;;;;;;5077458;28;20425;-76
2020/12/10 15:03:28;;;;;;;20.35;13.05;;;17.70;49.30;;;;;;5062720;28;20040;-75
2020/12/10 15:06:14;;;;;;;22.58;13.18;;;17.80;49.30;;;;;;5063200;28;20405;-71
2020/12/10 15:09:00;;;;;;;23.75;13.35;;;17.80;49.50;;;;;;5062590;28;20041;-75
2020/12/10 15:11:46;;;;;;;24.17;13.30;;;17.80;49.40;;;;;;5062607;28;20041;-77
2020/12/10 15:14:11;;;;;;;22.88;13.23;;;17.80;49.40;;;;;;5077498;28;20339;-76
2020/12/10 15:16:37;;;;;;;22.77;13.10;;;17.80;49.30;;;;;;5077263;28;20458;-76
2020/12/10 15:19:03;;;;;;;22.83;14.65;;;17.80;49.20;;;;;;5077507;28;20109;-78
2020/12/10 15:21:29;;;;;;;26.70;14.40;;;17.80;49.10;;;;;;5076996;28;20114;-78
2020/12/10 15:23:56;;;;;;;23.40;13.50;;;17.80;49.20;;;;;;5087138;28;20048;-77
2020/12/10 15:26:22;;;;;;;27.90;14.40;;;17.80;49.20;;;;;;5079002;28;20040;-76
2020/12/10 15:29:08;;;;;;;29.70;15.90;;;17.80;49.30;;;;;;5083547;28;20418;-80
2020/12/10 15:31:55;;;;;;;30.17;14.57;;;17.70;49.40;;;;;;5101861;28;20144;-84
2020/12/10 15:34:41;;;;;;;26.55;14.93;;;17.70;49.60;;;;;;5062417;28;20055;-81
2020/12/10 15:37:10;;;;;;;27.75;14.68;;;17.60;49.80;;;;;;5097344;28;20094;-82
2020/12/10 15:39:56;;;;;;;29.83;17.48;;;17.60;50.10;;;;;;5075471;28;20411;-81
2020/12/10 15:42:22;;;;;;;31.52;16.15;;;17.50;50.00;;;;;;5088094;28;20024;-81
2020/12/10 15:44:51;;;;;;;31.55;16.40;;;17.50;49.60;;;;;;5077044;28;20088;-81
2020/12/10 15:47:20;;;;;;;28.50;15.25;;;17.40;49.90;;;;;;5072075;28;20046;-80
2020/12/10 15:49:56;;;;;;;38.13;16.95;;;17.40;49.90;;;;;;5087351;28;20442;-79
2020/12/10 15:52:23;;;;;;;28.70;15.13;;;17.40;50.00;;;;;;5090061;28;20043;-82
2020/12/10 15:54:49;;;;;;;35.60;14.88;;;17.40;50.20;;;;;;5071541;28;20454;-79
2020/12/10 15:57:15;;;;;;;34.80;15.30;;;17.40;50.30;;;;;;5090407;28;20040;-83
2020/12/10 15:59:41;;;;;;;35.20;15.45;;;17.40;50.30;;;;;;5095525;28;20358;-77
2020/12/10 16:02:07;;;;;;;31.50;15.02;;;17.40;50.30;;;;;;5083955;28;20043;-77
2020/12/10 16:04:33;;;;;;;28.58;14.98;;;17.40;50.30;;;;;;5078020;28;20405;-80
2020/12/10 16:06:58;;;;;;;28.80;14.85;;;17.50;50.40;;;;;;5083138;28;20031;-79
2020/12/10 16:09:24;;;;;;;34.08;16.05;;;17.50;50.50;;;;;;5084988;28;20107;-82
2020/12/10 16:12:10;;;;;;;31.27;16.20;;;17.60;50.80;;;;;;5059785;28;20127;-80
2020/12/10 16:14:36;;;;;;;29.45;15.07;;;17.60;50.90;;;;;;5091562;28;20103;-85
2020/12/10 16:17:02;;;;;;;33.78;16.70;;;17.60;51.00;;;;;;5062847;28;20028;-81
2020/12/10 16:19:28;;;;;;;30.63;15.52;;;17.60;51.10;;;;;;5075661;28;20048;-81
2020/12/10 16:21:54;;;;;;;27.80;14.80;;;17.60;51.10;;;;;;5071763;28;20063;-81
2020/12/10 16:24:40;;;;;;;27.08;16.02;;;17.70;51.30;;;;;;5067654;28;20035;-82
2020/12/10 16:27:07;;;;;;;23.70;15.20;;;17.70;51.20;;;;;;5094593;28;20046;-82
2020/12/10 16:29:33;;;;;;;29.65;15.30;;;17.70;51.10;;;;;;5078131;28;20058;-81
2020/12/10 16:31:59;;;;;;;27.63;16.02;;;17.80;51.20;;;;;;5086364;28;20098;-82
2020/12/10 16:34:24;;;;;;;25.60;15.75;;;17.80;51.20;;;;;;5075710;28;20040;-81
2020/12/10 16:36:54;;;;;;;28.38;16.42;;;17.70;51.20;;;;;;5085860;28;20062;-81
2020/12/10 16:39:24;;;;;;;27.88;16.00;;;17.80;51.30;;;;;;5073635;28;20036;-82
2020/12/10 16:41:50;;;;;;;27.42;16.25;;;17.80;51.40;;;;;;5068955;28;20036;-81
2020/12/10 16:44:16;;;;;;;39.35;17.20;;;17.80;51.40;;;;;;5071628;28;20029;-81
2020/12/10 16:46:50;;;;;;;32.28;17.70;;;17.70;51.50;;;;;;5084213;28;20447;-82
2020/12/10 16:49:19;;;;;;;33.03;17.90;;;17.70;51.30;;;;;;5076611;28;20064;-81
2020/12/10 16:51:44;;;;;;;29.13;16.95;;;17.60;51.20;;;;;;5078216;28;20037;-81
2020/12/10 16:54:10;;;;;;;28.10;17.65;;;17.60;51.10;;;;;;5082391;28;20112;-83
2020/12/10 16:56:56;;;;;;;37.50;20.58;;;17.60;51.30;;;;;;5064376;28;20063;-84
2020/12/10 16:59:42;;;;;;;36.55;20.70;;;17.60;51.20;;;;;;5050778;28;20493;-82
2020/12/10 17:02:11;;;;;;;38.03;20.30;;;17.50;51.00;;;;;;5058581;28;20052;-89
2020/12/10 17:04:57;;;;;;;33.22;19.38;;;17.50;51.90;;;;;;5060467;28;20358;-83
2020/12/10 17:07:23;;;;;;;35.08;19.45;;;17.40;51.30;;;;;;5057326;28;20210;-83
2020/12/10 17:10:09;;;;;;;32.35;17.98;;;17.40;51.00;;;;;;5067648;28;20472;-83
2020/12/10 17:12:34;;;;;;;32.75;19.55;;;17.40;50.90;;;;;;5081770;28;20028;-84
2020/12/10 17:15:02;;;;;;;43.42;18.98;;;17.40;51.00;;;;;;5067074;28;20101;-82
2020/12/10 17:17:48;;;;;;;33.58;18.52;;;17.40;51.00;;;;;;5080522;28;20430;-82
2020/12/10 17:20:34;;;;;;;34.55;18.10;;;17.30;51.20;;;;;;5064108;28;20050;-83
2020/12/10 17:22:59;;;;;;;33.55;18.27;;;17.30;51.40;;;;;;5069677;28;20043;-82
2020/12/10 17:25:25;;;;;;;32.35;19.08;;;17.30;51.50;;;;;;5075598;28;20033;-82
2020/12/10 17:27:51;;;;;;;31.70;18.77;;;17.30;51.60;;;;;;5066111;28;20040;-82
2020/12/10 17:30:17;;;;;;;33.25;20.38;;;17.30;51.70;;;;;;5074909;28;20457;-82
2020/12/10 17:32:44;;;;;;;34.45;18.35;;;17.30;51.80;;;;;;5075326;28;20043;-82
2020/12/10 17:35:09;;;;;;;33.40;18.38;;;17.20;51.70;;;;;;5095387;28;20036;-82
2020/12/10 17:37:35;;;;;;;29.83;18.52;;;17.20;51.80;;;;;;5075394;28;20043;-82
2020/12/10 17:40:02;;;;;;;26.65;17.90;;;17.20;51.80;;;;;;5076852;28;20031;-82
2020/12/10 17:42:28;;;;;;;32.22;18.60;;;17.10;51.80;;;;;;5076585;28;20052;-82
2020/12/10 17:45:14;;;;;;;36.22;19.50;;;17.10;51.90;;;;;;5056119;28;20050;-82
2020/12/10 17:47:40;;;;;;;31.27;19.35;;;17.10;51.90;;;;;;5066315;28;20025;-83
2020/12/10 17:50:26;;;;;;;31.02;19.63;;;17.10;51.90;;;;;;5046686;28;20049;-83
2020/12/10 17:52:52;;;;;;;31.67;19.48;;;17.00;51.90;;;;;;5056956;28;20320;-82
2020/12/10 17:55:18;;;;;;;33.15;19.52;;;17.00;51.90;;;;;;5057295;28;20048;-82
2020/12/10 17:57:44;;;;;;;30.65;18.95;;;17.00;51.90;;;;;;5061799;28;20028;-82
2020/12/10 18:00:10;;;;;;;27.85;18.55;;;17.00;51.90;;;;;;5075311;28;20077;-82
2020/12/10 18:02:36;;;;;;;32.40;20.65;;;17.00;51.90;;;;;;5093768;28;20032;-82
2020/12/10 18:05:02;;;;;;;32.63;19.50;;;16.90;51.90;;;;;;5071224;28;20044;-82
2020/12/10 18:07:28;;;;;;;31.35;19.65;;;16.90;51.90;;;;;;5069967;28;20085;-82
2020/12/10 18:09:54;;;;;;;32.30;20.38;;;16.90;51.90;;;;;;5057454;28;20119;-82
2020/12/10 18:12:20;;;;;;;32.33;20.42;;;16.90;51.80;;;;;;5071992;28;20042;-82
2020/12/10 18:15:06;;;;;;;34.13;20.73;;;16.80;51.60;;;;;;5080889;28;20040;-82
2020/12/10 18:17:33;;;;;;;29.52;19.35;;;16.80;51.40;;;;;;5088028;28;20032;-82
2020/12/10 18:20:18;;;;;;;28.55;18.77;;;16.80;51.20;;;;;;5049488;28;20041;-82
2020/12/10 18:22:44;;;;;;;31.45;20.02;;;16.80;51.20;;;;;;5060446;28;20450;-82
2020/12/10 18:25:10;;;;;;;30.17;19.75;;;16.70;50.80;;;;;;5079384;28;20032;-82
2020/12/10 18:27:36;;;;;;;29.30;19.27;;;16.70;50.70;;;;;;5064460;28;20047;-82
2020/12/10 18:30:02;;;;;;;29.30;19.10;;;16.70;50.40;;;;;;5079348;28;20331;-82
2020/12/10 18:32:48;;;;;;;29.38;18.98;;;16.70;50.30;;;;;;5063491;28;20509;-82
2020/12/10 18:35:14;;;;;;;29.92;18.88;;;16.60;50.30;;;;;;5059929;28;20127;-82
2020/12/10 18:37:42;;;;;;;28.67;19.30;;;16.60;50.20;;;;;;5076760;28;20063;-82
2020/12/10 18:40:11;;;;;;;32.83;20.13;;;16.60;50.10;;;;;;5084764;28;20040;-81
2020/12/10 18:42:38;;;;;;;30.63;18.38;;;16.60;50.10;;;;;;5079529;28;20028;-81
2020/12/10 18:45:05;;;;;;;31.85;19.60;;;16.60;50.00;;;;;;5096669;28;20036;-82
2020/12/10 18:47:35;;;;;;;32.17;19.92;;;16.50;49.90;;;;;;5097715;28;20067;-82
2020/12/10 18:50:20;;;;;;;31.17;19.35;;;16.50;49.80;;;;;;5076488;28;20094;-82
2020/12/10 18:53:06;;;;;;;29.35;20.20;;;16.50;49.80;;;;;;5080487;28;20036;-82
2020/12/10 18:55:32;;;;;;;31.15;19.23;;;16.50;49.80;;;;;;5098221;28;20035;-82
2020/12/10 18:57:58;;;;;;;31.02;19.73;;;16.40;49.80;;;;;;5098828;28;20120;-82
2020/12/10 19:00:24;;;;;;;29.75;19.73;;;16.40;49.80;;;;;;5070636;28;20043;-82
2020/12/10 19:02:56;;;;;;;33.03;20.85;;;16.40;49.80;;;;;;5063023;28;20036;-82
2020/12/10 19:05:26;;;;;;;29.10;20.23;;;16.40;49.80;;;;;;5059761;28;20039;-81
2020/12/10 19:07:53;;;;;;;28.95;20.30;;;16.40;49.70;;;;;;5077675;28;20044;-81
2020/12/10 19:10:21;;;;;;;34.22;20.77;;;16.40;49.70;;;;;;5068811;28;20042;-81
2020/12/10 19:12:48;;;;;;;34.03;21.55;;;16.40;49.80;;;;;;5086462;28;20384;-81
2020/12/10 19:15:14;;;;;;;37.63;24.80;;;16.30;50.10;;;;;;5065492;28;20330;-82
2020/12/10 19:17:40;;;;;;;35.40;22.92;;;16.30;50.00;;;;;;5086313;28;20045;-82
2020/12/10 19:20:26;;;;;;;39.38;24.55;;;16.30;49.80;;;;;;5057413;28;20404;-82
2020/12/10 19:22:56;;;;;;;59.25;35.75;;;16.20;49.80;;;;;;5084785;28;20044;-89
2020/12/10 19:25:44;;;;;;;55.95;33.92;;;16.10;46.50;;;;;;5055574;28;20036;-88
2020/12/10 19:28:14;;;;;;;58.17;33.70;;;15.70;46.10;;;;;;5084613;28;20037;-85
2020/12/10 19:30:40;;;;;;;51.28;31.27;;;15.50;46.00;;;;;;5066724;28;20028;-83
2020/12/10 19:33:06;;;;;;;54.90;31.05;;;15.40;46.60;;;;;;5068232;28;20055;-83
2020/12/10 19:35:32;;;;;;;54.90;31.33;;;15.40;47.10;;;;;;5069986;28;20025;-81
2020/12/10 19:37:59;;;;;;;54.53;35.13;;;15.40;47.50;;;;;;5086276;28;20031;-84
2020/12/10 19:40:26;;;;;;;55.92;32.88;;;15.40;45.70;;;;;;5068211;28;20048;-84
2020/12/10 19:42:52;;;;;;;55.65;31.42;;;15.30;45.60;;;;;;5057419;28;20055;-83
2020/12/10 19:45:18;;;;;;;53.55;31.48;;;15.20;46.10;;;;;;5096586;28;20032;-83
2020/12/10 19:47:44;;;;;;;50.90;30.30;;;15.20;46.70;;;;;;5077616;28;20060;-83
2020/12/10 19:50:10;;;;;;;48.97;30.17;;;15.20;47.10;;;;;;5076846;28;20347;-85
2020/12/10 19:52:37;;;;;;;50.20;30.30;;;15.20;47.40;;;;;;5076896;28;20031;-83
2020/12/10 19:55:04;;;;;;;50.38;30.65;;;15.20;47.80;;;;;;5078739;28;20121;-82
2020/12/10 19:57:30;;;;;;;50.45;30.08;;;15.20;48.10;;;;;;5091215;28;20085;-81
2020/12/10 19:59:56;;;;;;;49.55;29.95;;;15.30;48.10;;;;;;5081033;28;20040;-82
2020/12/10 20:02:42;;;;;;;52.67;29.30;;;15.30;48.20;;;;;;5054891;28;20470;-83
2020/12/10 20:05:09;;;;;;;45.70;28.92;;;15.30;48.30;;;;;;5069719;28;20032;-83
2020/12/10 20:07:34;;;;;;;42.55;27.05;;;15.30;48.90;;;;;;5068334;28;20415;-82
2020/12/10 20:10:00;;;;;;;47.55;29.08;;;15.30;48.20;;;;;;5076376;28;20059;-82
2020/12/10 20:12:26;;;;;;;43.75;28.25;;;15.20;48.20;;;;;;5076247;28;20032;-81
2020/12/10 20:14:58;;;;;;;42.17;26.70;;;15.20;48.20;;;;;;5074182;28;20032;-83
2020/12/10 20:17:25;;;;;;;44.75;28.05;;;15.20;48.20;;;;;;5070980;28;20058;-84
2020/12/10 20:19:53;;;;;;;45.88;28.75;;;15.20;48.20;;;;;;5092357;28;20048;-82
2020/12/10 20:22:22;;;;;;;42.38;27.15;;;15.20;48.20;;;;;;5084441;28;20071;-80
2020/12/10 20:24:49;;;;;;;39.35;26.25;;;15.20;48.40;;;;;;5066337;28;20127;-85
2020/12/10 20:27:15;;;;;;;42.67;27.83;;;15.20;48.50;;;;;;5060838;28;20189;-83
2020/12/10 20:30:01;;;;;;;43.58;28.75;;;15.20;48.50;;;;;;5064301;28;20046;-81
2020/12/10 20:32:27;;;;;;;42.88;26.90;;;15.10;48.40;;;;;;5076576;28;20059;-81
2020/12/10 20:35:13;;;;;;;40.20;26.35;;;15.10;48.40;;;;;;5062051;28;20458;-83
2020/12/10 20:37:38;;;;;;;45.30;28.02;;;15.10;48.50;;;;;;5076277;28;20036;-81
2020/12/10 20:40:04;;;;;;;41.10;26.33;;;15.10;48.50;;;;;;5070552;28;20032;-81
2020/12/10 20:42:31;;;;;;;45.25;26.95;;;15.10;49.10;;;;;;5064089;28;20052;-81
2020/12/10 20:44:56;;;;;;;41.70;26.60;;;15.10;48.50;;;;;;5076715;28;20354;-82
2020/12/10 20:47:23;;;;;;;38.22;25.02;;;15.10;48.50;;;;;;5057747;28;20089;-82
2020/12/10 20:50:09;;;;;;;42.33;26.35;;;15.00;48.50;;;;;;5071423;28;20526;-82
2020/12/10 20:52:35;;;;;;;44.28;27.17;;;15.00;48.50;;;;;;5088550;28;20119;-82
2020/12/10 20:55:25;;;;;;;41.95;26.38;;;15.00;48.50;;;;;;5061792;28;20052;-84
2020/12/10 20:57:52;;;;;;;40.45;26.48;;;15.00;48.60;;;;;;5075368;28;20362;-85
2020/12/10 21:00:18;;;;;;;40.88;25.88;;;15.00;48.60;;;;;;5112885;28;20051;-84
2020/12/10 21:02:47;;;;;;;42.47;26.70;;;15.00;48.60;;;;;;5090944;28;20346;-85
2020/12/10 21:05:13;;;;;;;42.08;27.13;;;15.00;48.60;;;;;;5075678;28;20048;-81
2020/12/10 21:07:59;;;;;;;41.78;26.55;;;15.00;48.70;;;;;;5046929;28;20527;-82
2020/12/10 21:10:25;;;;;;;39.45;25.33;;;15.00;48.70;;;;;;5077613;28;20116;-85
2020/12/10 21:12:51;;;;;;;42.65;25.73;;;15.00;48.70;;;;;;5109388;28;20070;-81
2020/12/10 21:15:18;;;;;;;42.38;26.65;;;15.00;48.70;;;;;;5087173;28;20040;-82
2020/12/10 21:18:03;;;;;;;41.03;26.13;;;15.00;48.70;;;;;;5060074;28;20061;-81
2020/12/10 21:20:29;;;;;;;44.00;27.35;;;15.00;48.70;;;;;;5075587;28;20048;-82
2020/12/10 21:22:55;;;;;;;44.08;27.73;;;15.00;48.70;;;;;;5077474;28;20111;-83
2020/12/10 21:25:21;;;;;;;42.28;27.33;;;15.00;48.70;;;;;;5077578;28;20052;-82
2020/12/10 21:27:47;;;;;;;42.35;25.90;;;15.00;48.70;;;;;;5089494;28;20054;-82
2020/12/10 21:30:12;;;;;;;39.42;25.98;;;15.00;48.70;;;;;;5071295;28;20101;-82
2020/12/10 21:32:38;;;;;;;40.22;26.10;;;15.00;48.70;;;;;;5091875;28;20104;-84
2020/12/10 21:35:04;;;;;;;39.58;25.90;;;15.00;48.70;;;;;;5065717;28;20088;-82
2020/12/10 21:37:32;;;;;;;43.85;26.95;;;15.00;48.70;;;;;;5065158;28;20040;-81
2020/12/10 21:39:58;;;;;;;43.85;27.35;;;15.00;48.70;;;;;;5074943;28;20122;-83
2020/12/10 21:42:24;;;;;;;38.58;26.08;;;15.00;48.70;;;;;;5057063;28;20496;-82
2020/12/10 21:44:52;;;;;;;39.58;25.73;;;15.00;48.80;;;;;;5076865;28;20041;-82
2020/12/10 21:47:18;;;;;;;38.67;25.63;;;15.00;48.80;;;;;;5084915;28;20449;-83
2020/12/10 21:50:04;;;;;;;42.25;25.58;;;15.00;48.80;;;;;;5051995;28;20469;-82
2020/12/10 21:52:50;;;;;;;38.72;25.73;;;14.90;48.80;;;;;;5046454;28;20105;-83
2020/12/10 21:55:15;;;;;;;40.58;26.50;;;15.00;48.90;;;;;;5079438;28;20040;-81
2020/12/10 21:57:42;;;;;;;40.17;26.05;;;15.00;48.90;;;;;;5061191;28;20040;-83
2020/12/10 22:00:28;;;;;;;36.20;25.38;;;14.90;48.80;;;;;;5050345;28;20046;-80
2020/12/10 22:02:54;;;;;;;39.00;25.48;;;14.90;48.80;;;;;;5079221;28;20032;-82
2020/12/10 22:05:21;;;;;;;37.90;25.00;;;14.90;48.70;;;;;;5083730;28;20119;-82
2020/12/10 22:07:48;;;;;;;40.72;25.88;;;14.90;48.70;;;;;;5091820;28;20072;-81
2020/12/10 22:10:14;;;;;;;34.70;24.02;;;14.90;48.70;;;;;;5067220;28;20052;-82
2020/12/10 22:13:02;;;;;;;38.42;24.90;;;14.90;48.70;;;;;;5050318;28;20076;-82
2020/12/10 22:15:47;;;;;;;34.72;24.45;;;14.90;48.80;;;;;;5052495;28;20040;-81
2020/12/10 22:18:13;;;;;;;37.55;23.95;;;14.90;48.90;;;;;;5073206;28;20123;-82
2020/12/10 22:20:39;;;;;;;35.05;23.67;;;14.90;48.90;;;;;;5093274;28;20377;-81
2020/12/10 22:23:26;;;;;;;36.22;23.95;;;14.90;48.90;;;;;;5083666;28;20331;-83
2020/12/10 22:25:52;;;;;;;33.97;23.48;;;14.90;48.80;;;;;;5098260;28;20092;-82
2020/12/10 22:28:18;;;;;;;33.83;23.48;;;14.90;48.80;;;;;;5097027;28;20119;-81
2020/12/10 22:30:49;;;;;;;33.50;22.67;;;14.90;48.80;;;;;;5095674;28;20055;-83
2020/12/10 22:33:15;;;;;;;32.10;22.52;;;14.90;48.80;;;;;;5068765;28;20050;-82
2020/12/10 22:35:41;;;;;;;35.38;24.00;;;14.90;48.70;;;;;;5079423;28;20470;-82
2020/12/10 22:38:07;;;;;;;32.78;22.55;;;14.90;48.70;;;;;;5060796;28;20040;-82
2020/12/10 22:40:33;;;;;;;33.45;23.05;;;14.90;48.70;;;;;;5094755;28;20040;-83
2020/12/10 22:42:59;;;;;;;32.63;23.05;;;14.90;48.70;;;;;;5079836;28;20036;-82
2020/12/10 22:45:25;;;;;;;32.05;21.83;;;14.80;48.70;;;;;;5064698;28;20036;-83
2020/12/10 22:47:51;;;;;;;32.53;22.45;;;14.80;48.70;;;;;;5061220;28;20040;-82
2020/12/10 22:50:37;;;;;;;32.05;21.65;;;14.80;48.70;;;;;;5049867;28;20059;-83
2020/12/10 22:53:03;;;;;;;32.17;22.70;;;14.80;48.80;;;;;;5077965;28;20427;-83
2020/12/10 22:55:48;;;;;;;32.47;21.85;;;14.80;48.80;;;;;;5077032;28;20131;-84
2020/12/10 22:58:14;;;;;;;34.00;22.42;;;14.80;48.90;;;;;;5077374;28;20495;-85
2020/12/10 23:01:00;;;;;;;32.28;22.05;;;14.80;48.80;;;;;;5063659;28;20036;-83
2020/12/10 23:03:26;;;;;;;28.85;20.33;;;14.80;48.80;;;;;;5059757;28;20047;-83
2020/12/10 23:06:18;;;;;;;30.40;20.45;;;14.80;48.80;;;;;;5048901;28;20040;-81
2020/12/10 23:08:45;;;;;;;28.70;19.30;;;14.80;48.80;;;;;;5060217;28;20048;-83
2020/12/10 23:11:31;;;;;;;30.95;22.33;;;14.80;48.80;;;;;;5059929;28;20043;-82
2020/12/10 23:13:57;;;;;;;31.05;20.92;;;14.80;48.80;;;;;;5074350;28;20366;-82
2020/12/10 23:16:22;;;;;;;31.85;21.25;;;14.80;48.80;;;;;;5059755;28;20435;-83
2020/12/10 23:18:48;;;;;;;31.60;21.65;;;14.80;48.70;;;;;;5077554;28;20074;-83
2020/12/10 23:21:14;;;;;;;29.30;20.73;;;14.70;48.60;;;;;;5078882;28;20454;-83
2020/12/10 23:23:40;;;;;;;28.88;19.75;;;14.80;48.70;;;;;;5079196;28;20042;-83
2020/12/10 23:26:26;;;;;;;27.88;20.58;;;14.80;48.70;;;;;;5048300;28;20139;-83
2020/12/10 23:28:51;;;;;;;29.58;20.38;;;14.70;48.70;;;;;;5076933;28;20111;-84
2020/12/10 23:31:37;;;;;;;29.65;20.13;;;14.80;48.80;;;;;;5048609;28;20060;-83
2020/12/10 23:34:23;;;;;;;29.15;19.35;;;14.70;48.80;;;;;;5089052;28;20040;-82
2020/12/10 23:36:49;;;;;;;27.40;19.25;;;14.70;48.80;;;;;;5067770;28;20061;-81
2020/12/10 23:39:15;;;;;;;28.02;19.90;;;14.70;48.80;;;;;;5097390;28;20051;-81
2020/12/10 23:41:40;;;;;;;30.20;19.40;;;14.70;48.80;;;;;;5078500;28;20043;-82
2020/12/10 23:44:06;;;;;;;28.50;20.35;;;14.70;48.80;;;;;;5074614;28;20033;-82
2020/12/10 23:46:52;;;;;;;30.10;19.88;;;14.70;48.80;;;;;;5048238;28;20044;-81
2020/12/10 23:49:18;;;;;;;27.45;19.33;;;14.70;48.80;;;;;;5059113;28;20120;-82
2020/12/10 23:52:04;;;;;;;26.35;18.60;;;14.70;48.90;;;;;;5048115;28;20054;-83
2020/12/10 23:54:30;;;;;;;26.58;18.92;;;14.70;48.90;;;;;;5078039;28;20036;-82
2020/12/10 23:56:56;;;;;;;26.95;19.58;;;14.70;48.90;;;;;;5071228;28;20037;-83
2020/12/10 23:59:21;;;;;;;28.27;19.42;;;14.70;48.90;;;;;;5069490;28;20036;-81
